Terminal Aerodrome Forecast
Issued by NWS

Home | Current Version | Previous Version | Text Only | Print | Product List | Glossary On
Versions: 1 2 3 4 5 6 7 8 9 10 11 12 13 14 15 16 17
337
FTUS46 KMTR 192151 AAB
TAFSNS
TAF AMD
KSNS 192151Z 1922/2018 30014KT P6SM BKN016
      TEMPO 1922/2002 SCT016
     FM200300 31006KT P6SM BKN008
     FM200800 VRB03KT P6SM OVC006
     FM201630 13004KT P6SM SCT010=

USA.gov is the U.S. government's official web portal to all federal, state and local government web resources and services.